sensor_id;sensor_type;location;lat;lon;timestamp;temperature;humidity
292;DHT22;23311;48.776;9.162;2022-11-15T00:01:16;9.40;95.50
292;DHT22;23311;48.776;9.162;2022-11-15T00:03:45;9.40;95.50
292;DHT22;23311;48.776;9.162;2022-11-15T00:06:13;9.60;95.50
292;DHT22;23311;48.776;9.162;2022-11-15T00:08:41;9.80;95.50
292;DHT22;23311;48.776;9.162;2022-11-15T00:11:11;9.90;95.50
292;DHT22;23311;48.776;9.162;2022-11-15T00:13:39;10.00;95.50
292;DHT22;23311;48.776;9.162;2022-11-15T00:16:09;10.10;95.50
292;DHT22;23311;48.776;9.162;2022-11-15T00:18:38;10.10;95.50
292;DHT22;23311;48.776;9.162;2022-11-15T00:21:09;10.10;95.50
292;DHT22;23311;48.776;9.162;2022-11-15T00:23:37;10.10;95.50
292;DHT22;23311;48.776;9.162;2022-11-15T00:26:06;10.00;95.50
292;DHT22;23311;48.776;9.162;2022-11-15T00:28:34;10.10;95.50
292;DHT22;23311;48.776;9.162;2022-11-15T00:31:03;10.00;95.50
292;DHT22;23311;48.776;9.162;2022-11-15T00:33:34;10.20;95.50
292;DHT22;23311;48.776;9.162;2022-11-15T00:36:03;10.30;95.50
292;DHT22;23311;48.776;9.162;2022-11-15T00:38:32;10.30;95.50
292;DHT22;23311;48.776;9.162;2022-11-15T00:41:02;10.40;95.50
292;DHT22;23311;48.776;9.162;2022-11-15T00:43:35;10.40;95.50
292;DHT22;23311;48.776;9.162;2022-11-15T00:46:03;10.40;95.50
292;DHT22;23311;48.776;9.162;2022-11-15T00:48:31;10.30;95.50
292;DHT22;23311;48.776;9.162;2022-11-15T00:51:01;10.30;95.50
292;DHT22;23311;48.776;9.162;2022-11-15T00:53:29;10.20;95.50
292;DHT22;23311;48.776;9.162;2022-11-15T00:55:57;10.10;95.50
292;DHT22;23311;48.776;9.162;2022-11-15T00:58:26;9.90;95.50
292;DHT22;23311;48.776;9.162;2022-11-15T01:00:53;9.80;95.50
292;DHT22;23311;48.776;9.162;2022-11-15T01:03:22;9.60;95.50
292;DHT22;23311;48.776;9.162;2022-11-15T01:05:50;9.30;95.50
292;DHT22;23311;48.776;9.162;2022-11-15T01:08:19;9.20;95.50
292;DHT22;23311;48.776;9.162;2022-11-15T01:10:47;9.10;95.50
292;DHT22;23311;48.776;9.162;2022-11-15T01:13:15;9.00;95.50
292;DHT22;23311;48.776;9.162;2022-11-15T01:15:43;8.90;95.50
292;DHT22;23311;48.776;9.162;2022-11-15T01:18:11;8.80;95.50
292;DHT22;23311;48.776;9.162;2022-11-15T01:20:40;8.60;95.50
292;DHT22;23311;48.776;9.162;2022-11-15T01:23:09;8.40;95.50
292;DHT22;23311;48.776;9.162;2022-11-15T01:25:38;8.40;95.50
292;DHT22;23311;48.776;9.162;2022-11-15T01:28:06;8.30;95.50
292;DHT22;23311;48.776;9.162;2022-11-15T01:30:36;8.10;95.50
292;DHT22;23311;48.776;9.162;2022-11-15T01:33:04;8.00;95.50
292;DHT22;23311;48.776;9.162;2022-11-15T01:35:32;7.90;95.50
292;DHT22;23311;48.776;9.162;2022-11-15T01:38:00;7.80;95.50
292;DHT22;23311;48.776;9.162;2022-11-15T01:40:28;7.70;95.50
292;DHT22;23311;48.776;9.162;2022-11-15T01:42:57;7.60;95.50
292;DHT22;23311;48.776;9.162;2022-11-15T01:45:26;7.50;95.50
292;DHT22;23311;48.776;9.162;2022-11-15T01:47:54;7.50;95.50
292;DHT22;23311;48.776;9.162;2022-11-15T01:50:25;7.50;95.50
292;DHT22;23311;48.776;9.162;2022-11-15T01:52:54;7.50;95.50
292;DHT22;23311;48.776;9.162;2022-11-15T01:55:24;7.40;95.50
292;DHT22;23311;48.776;9.162;2022-11-15T01:57:57;7.40;95.50
292;DHT22;23311;48.776;9.162;2022-11-15T02:00:25;7.40;95.50
292;DHT22;23311;48.776;9.162;2022-11-15T02:02:53;7.30;95.50
292;DHT22;23311;48.776;9.162;2022-11-15T02:05:21;7.20;95.50
292;DHT22;23311;48.776;9.162;2022-11-15T02:07:50;7.20;95.50
292;DHT22;23311;48.776;9.162;2022-11-15T02:10:20;7.20;95.50
292;DHT22;23311;48.776;9.162;2022-11-15T02:12:49;7.30;95.50
292;DHT22;23311;48.776;9.162;2022-11-15T02:15:20;7.50;95.50
292;DHT22;23311;48.776;9.162;2022-11-15T02:18:07;7.80;95.50
292;DHT22;23311;48.776;9.162;2022-11-15T02:20:52;7.80;95.50
292;DHT22;23311;48.776;9.162;2022-11-15T02:23:58;7.80;95.50
292;DHT22;23311;48.776;9.162;2022-11-15T02:26:53;7.60;95.50
292;DHT22;23311;48.776;9.162;2022-11-15T02:29:37;7.50;95.50
292;DHT22;23311;48.776;9.162;2022-11-15T02:32:11;7.50;95.50
292;DHT22;23311;48.776;9.162;2022-11-15T02:34:50;7.60;95.50
292;DHT22;23311;48.776;9.162;2022-11-15T02:37:29;7.60;95.50
292;DHT22;23311;48.776;9.162;2022-11-15T02:40:01;7.50;95.50
292;DHT22;23311;48.776;9.162;2022-11-15T02:42:36;7.40;95.50
292;DHT22;23311;48.776;9.162;2022-11-15T02:45:31;7.40;95.50
292;DHT22;23311;48.776;9.162;2022-11-15T02:48:03;7.40;95.50
292;DHT22;23311;48.776;9.162;2022-11-15T02:50:32;7.40;95.50
292;DHT22;23311;48.776;9.162;2022-11-15T02:53:01;7.40;95.50
292;DHT22;23311;48.776;9.162;2022-11-15T02:55:31;7.50;95.50
292;DHT22;23311;48.776;9.162;2022-11-15T02:58:09;7.60;95.50
292;DHT22;23311;48.776;9.162;2022-11-15T03:00:45;7.60;95.50
292;DHT22;23311;48.776;9.162;2022-11-15T03:03:34;7.70;95.50
292;DHT22;23311;48.776;9.162;2022-11-15T03:06:13;7.60;95.50
292;DHT22;23311;48.776;9.162;2022-11-15T03:08:50;7.60;95.50
292;DHT22;23311;48.776;9.162;2022-11-15T03:11:22;7.40;95.50
292;DHT22;23311;48.776;9.162;2022-11-15T03:13:56;7.30;95.50
292;DHT22;23311;48.776;9.162;2022-11-15T03:16:29;7.20;95.50
292;DHT22;23311;48.776;9.162;2022-11-15T03:19:04;7.10;95.50
292;DHT22;23311;48.776;9.162;2022-11-15T03:21:35;7.10;95.50
292;DHT22;23311;48.776;9.162;2022-11-15T03:24:07;7.10;95.50
292;DHT22;23311;48.776;9.162;2022-11-15T03:26:37;7.10;95.50
292;DHT22;23311;48.776;9.162;2022-11-15T03:29:11;7.20;95.50
292;DHT22;23311;48.776;9.162;2022-11-15T03:31:44;7.20;95.50
292;DHT22;23311;48.776;9.162;2022-11-15T03:34:26;7.40;95.50
292;DHT22;23311;48.776;9.162;2022-11-15T03:36:55;7.40;95.50
292;DHT22;23311;48.776;9.162;2022-11-15T03:39:23;7.40;95.50
292;DHT22;23311;48.776;9.162;2022-11-15T03:41:57;7.30;95.50
292;DHT22;23311;48.776;9.162;2022-11-15T03:44:36;7.30;95.50
292;DHT22;23311;48.776;9.162;2022-11-15T03:47:09;7.20;95.50
292;DHT22;23311;48.776;9.162;2022-11-15T03:49:43;7.30;95.50
292;DHT22;23311;48.776;9.162;2022-11-15T03:52:12;7.30;95.50
292;DHT22;23311;48.776;9.162;2022-11-15T03:54:48;7.40;95.50
292;DHT22;23311;48.776;9.162;2022-11-15T03:57:17;7.40;95.50
292;DHT22;23311;48.776;9.162;2022-11-15T03:59:45;7.40;95.50
292;DHT22;23311;48.776;9.162;2022-11-15T04:02:13;7.40;95.50
292;DHT22;23311;48.776;9.162;2022-11-15T04:04:43;7.40;95.50
292;DHT22;23311;48.776;9.162;2022-11-15T04:07:11;7.50;95.50
292;DHT22;23311;48.776;9.162;2022-11-15T04:09:40;7.60;95.50
292;DHT22;23311;48.776;9.162;2022-11-15T04:12:22;7.70;95.50
292;DHT22;23311;48.776;9.162;2022-11-15T04:14:58;7.70;95.50
292;DHT22;23311;48.776;9.162;2022-11-15T04:17:38;7.60;95.50
292;DHT22;23311;48.776;9.162;2022-11-15T04:20:10;7.50;95.50
292;DHT22;23311;48.776;9.162;2022-11-15T04:22:58;7.50;95.50
292;DHT22;23311;48.776;9.162;2022-11-15T04:25:44;7.60;95.50
292;DHT22;23311;48.776;9.162;2022-11-15T04:28:12;7.60;95.50
292;DHT22;23311;48.776;9.162;2022-11-15T04:30:40;7.70;95.50
292;DHT22;23311;48.776;9.162;2022-11-15T04:33:08;7.70;95.50
292;DHT22;23311;48.776;9.162;2022-11-15T04:35:38;7.70;95.50
292;DHT22;23311;48.776;9.162;2022-11-15T04:38:07;7.70;95.50
292;DHT22;23311;48.776;9.162;2022-11-15T04:40:35;7.70;95.50
292;DHT22;23311;48.776;9.162;2022-11-15T04:43:03;7.70;95.50
292;DHT22;23311;48.776;9.162;2022-11-15T04:45:32;7.50;95.50
292;DHT22;23311;48.776;9.162;2022-11-15T04:48:00;7.40;95.50
292;DHT22;23311;48.776;9.162;2022-11-15T04:50:28;7.40;95.50
292;DHT22;23311;48.776;9.162;2022-11-15T04:52:57;7.30;95.50
292;DHT22;23311;48.776;9.162;2022-11-15T04:55:25;7.30;95.50
292;DHT22;23311;48.776;9.162;2022-11-15T04:57:59;7.30;95.50
292;DHT22;23311;48.776;9.162;2022-11-15T05:00:28;7.20;95.50
292;DHT22;23311;48.776;9.162;2022-11-15T05:02:57;7.10;95.50
292;DHT22;23311;48.776;9.162;2022-11-15T05:05:42;7.10;95.50
292;DHT22;23311;48.776;9.162;2022-11-15T05:08:12;7.00;95.50
292;DHT22;23311;48.776;9.162;2022-11-15T05:10:40;7.10;95.50
292;DHT22;23311;48.776;9.162;2022-11-15T05:13:08;7.20;95.50
292;DHT22;23311;48.776;9.162;2022-11-15T05:15:36;7.30;95.50
292;DHT22;23311;48.776;9.162;2022-11-15T05:18:04;7.30;95.50
292;DHT22;23311;48.776;9.162;2022-11-15T05:20:32;7.30;95.50
292;DHT22;23311;48.776;9.162;2022-11-15T05:23:00;7.20;95.50
292;DHT22;23311;48.776;9.162;2022-11-15T05:25:29;7.10;95.50
292;DHT22;23311;48.776;9.162;2022-11-15T05:27:58;7.00;95.50
292;DHT22;23311;48.776;9.162;2022-11-15T05:30:26;6.90;95.50
292;DHT22;23311;48.776;9.162;2022-11-15T05:32:54;7.10;95.50
292;DHT22;23311;48.776;9.162;2022-11-15T05:35:29;7.30;95.50
292;DHT22;23311;48.776;9.162;2022-11-15T05:37:57;7.40;95.50
292;DHT22;23311;48.776;9.162;2022-11-15T05:40:25;7.50;95.50
292;DHT22;23311;48.776;9.162;2022-11-15T05:42:55;7.60;95.50
292;DHT22;23311;48.776;9.162;2022-11-15T05:45:23;7.50;95.50
292;DHT22;23311;48.776;9.162;2022-11-15T05:47:54;7.50;95.50
292;DHT22;23311;48.776;9.162;2022-11-15T05:50:23;7.40;95.50
292;DHT22;23311;48.776;9.162;2022-11-15T05:52:52;7.50;95.50
292;DHT22;23311;48.776;9.162;2022-11-15T05:55:20;7.50;95.50
292;DHT22;23311;48.776;9.162;2022-11-15T05:57:48;7.50;95.50
292;DHT22;23311;48.776;9.162;2022-11-15T06:00:18;7.50;95.50
292;DHT22;23311;48.776;9.162;2022-11-15T06:02:46;7.40;95.50
292;DHT22;23311;48.776;9.162;2022-11-15T06:05:14;7.40;95.50
292;DHT22;23311;48.776;9.162;2022-11-15T06:07:42;7.40;95.50
292;DHT22;23311;48.776;9.162;2022-11-15T06:10:11;7.50;95.50
292;DHT22;23311;48.776;9.162;2022-11-15T06:12:39;7.60;95.50
292;DHT22;23311;48.776;9.162;2022-11-15T06:15:08;7.60;95.50
292;DHT22;23311;48.776;9.162;2022-11-15T06:17:37;7.70;95.50
292;DHT22;23311;48.776;9.162;2022-11-15T06:20:06;7.60;95.50
292;DHT22;23311;48.776;9.162;2022-11-15T06:22:34;7.50;95.50
292;DHT22;23311;48.776;9.162;2022-11-15T06:25:03;7.40;95.50
292;DHT22;23311;48.776;9.162;2022-11-15T06:27:31;7.40;95.50
292;DHT22;23311;48.776;9.162;2022-11-15T06:29:59;7.40;95.50
292;DHT22;23311;48.776;9.162;2022-11-15T06:32:29;7.30;95.50
292;DHT22;23311;48.776;9.162;2022-11-15T06:34:58;7.40;95.50
292;DHT22;23311;48.776;9.162;2022-11-15T06:37:26;7.40;95.50
292;DHT22;23311;48.776;9.162;2022-11-15T06:39:54;7.40;95.50
292;DHT22;23311;48.776;9.162;2022-11-15T06:42:22;7.40;95.50
292;DHT22;23311;48.776;9.162;2022-11-15T06:44:51;7.40;95.50
292;DHT22;23311;48.776;9.162;2022-11-15T06:47:19;7.60;95.50
292;DHT22;23311;48.776;9.162;2022-11-15T06:49:47;7.50;95.50
292;DHT22;23311;48.776;9.162;2022-11-15T06:52:16;7.60;95.50
292;DHT22;23311;48.776;9.162;2022-11-15T06:54:47;7.60;95.50
292;DHT22;23311;48.776;9.162;2022-11-15T06:57:15;7.60;95.50
292;DHT22;23311;48.776;9.162;2022-11-15T06:59:43;7.70;95.50
292;DHT22;23311;48.776;9.162;2022-11-15T07:02:12;7.90;95.50
292;DHT22;23311;48.776;9.162;2022-11-15T07:04:40;8.00;95.50
292;DHT22;23311;48.776;9.162;2022-11-15T07:07:09;8.20;95.50
292;DHT22;23311;48.776;9.162;2022-11-15T07:09:39;8.30;95.50
292;DHT22;23311;48.776;9.162;2022-11-15T07:12:07;8.40;95.50
292;DHT22;23311;48.776;9.162;2022-11-15T07:14:35;8.60;95.50
292;DHT22;23311;48.776;9.162;2022-11-15T07:17:03;8.80;95.50
292;DHT22;23311;48.776;9.162;2022-11-15T07:19:32;8.90;95.50
292;DHT22;23311;48.776;9.162;2022-11-15T07:22:00;9.10;95.50
292;DHT22;23311;48.776;9.162;2022-11-15T07:24:30;9.20;95.50
292;DHT22;23311;48.776;9.162;2022-11-15T07:26:59;9.40;95.50
292;DHT22;23311;48.776;9.162;2022-11-15T07:29:31;9.60;95.50
292;DHT22;23311;48.776;9.162;2022-11-15T07:31:59;9.80;95.50
292;DHT22;23311;48.776;9.162;2022-11-15T07:34:27;10.00;95.50
292;DHT22;23311;48.776;9.162;2022-11-15T07:36:55;10.10;95.50
292;DHT22;23311;48.776;9.162;2022-11-15T07:39:23;10.30;95.50
292;DHT22;23311;48.776;9.162;2022-11-15T07:41:51;10.60;95.50
292;DHT22;23311;48.776;9.162;2022-11-15T07:44:41;10.80;95.50
292;DHT22;23311;48.776;9.162;2022-11-15T07:47:09;11.00;95.50
292;DHT22;23311;48.776;9.162;2022-11-15T07:49:37;11.30;95.50
292;DHT22;23311;48.776;9.162;2022-11-15T07:52:05;11.60;95.50
292;DHT22;23311;48.776;9.162;2022-11-15T07:54:33;11.80;95.50
292;DHT22;23311;48.776;9.162;2022-11-15T07:57:01;12.00;95.50
292;DHT22;23311;48.776;9.162;2022-11-15T07:59:33;12.00;95.50
292;DHT22;23311;48.776;9.162;2022-11-15T08:02:03;12.10;95.50
292;DHT22;23311;48.776;9.162;2022-11-15T08:04:31;12.10;95.50
292;DHT22;23311;48.776;9.162;2022-11-15T08:06:59;12.10;95.50
292;DHT22;23311;48.776;9.162;2022-11-15T08:09:27;12.10;95.50
292;DHT22;23311;48.776;9.162;2022-11-15T08:11:55;12.20;95.50
292;DHT22;23311;48.776;9.162;2022-11-15T08:14:23;12.40;95.50
292;DHT22;23311;48.776;9.162;2022-11-15T08:16:51;12.60;95.50
292;DHT22;23311;48.776;9.162;2022-11-15T08:19:21;12.50;95.50
292;DHT22;23311;48.776;9.162;2022-11-15T08:21:49;12.50;95.50
292;DHT22;23311;48.776;9.162;2022-11-15T08:24:17;12.60;95.50
292;DHT22;23311;48.776;9.162;2022-11-15T08:26:47;12.60;95.50
292;DHT22;23311;48.776;9.162;2022-11-15T08:29:15;12.60;95.50
292;DHT22;23311;48.776;9.162;2022-11-15T08:31:43;12.60;95.50
292;DHT22;23311;48.776;9.162;2022-11-15T08:34:11;12.50;95.50
292;DHT22;23311;48.776;9.162;2022-11-15T08:36:40;12.40;95.50
292;DHT22;23311;48.776;9.162;2022-11-15T08:39:12;12.30;95.50
292;DHT22;23311;48.776;9.162;2022-11-15T08:41:40;12.30;95.50
292;DHT22;23311;48.776;9.162;2022-11-15T08:44:08;12.30;95.50
292;DHT22;23311;48.776;9.162;2022-11-15T08:46:36;12.30;95.50
292;DHT22;23311;48.776;9.162;2022-11-15T08:49:04;12.30;95.50
292;DHT22;23311;48.776;9.162;2022-11-15T08:51:32;12.40;95.50
292;DHT22;23311;48.776;9.162;2022-11-15T08:54:02;12.40;95.50
292;DHT22;23311;48.776;9.162;2022-11-15T08:56:30;12.60;95.50
292;DHT22;23311;48.776;9.162;2022-11-15T08:58:58;12.70;95.50
292;DHT22;23311;48.776;9.162;2022-11-15T09:01:27;12.80;95.50
292;DHT22;23311;48.776;9.162;2022-11-15T09:03:55;13.00;95.50
292;DHT22;23311;48.776;9.162;2022-11-15T09:06:23;13.40;95.50
292;DHT22;23311;48.776;9.162;2022-11-15T09:08:51;13.60;95.30
292;DHT22;23311;48.776;9.162;2022-11-15T09:11:21;13.90;94.30
292;DHT22;23311;48.776;9.162;2022-11-15T09:13:50;14.10;93.70
292;DHT22;23311;48.776;9.162;2022-11-15T09:16:18;14.30;93.30
292;DHT22;23311;48.776;9.162;2022-11-15T09:18:46;14.50;92.70
292;DHT22;23311;48.776;9.162;2022-11-15T09:21:14;14.70;92.20
292;DHT22;23311;48.776;9.162;2022-11-15T09:23:42;14.90;91.40
292;DHT22;23311;48.776;9.162;2022-11-15T09:26:10;15.10;91.10
292;DHT22;23311;48.776;9.162;2022-11-15T09:28:40;15.40;90.60
292;DHT22;23311;48.776;9.162;2022-11-15T09:31:08;15.60;89.70
292;DHT22;23311;48.776;9.162;2022-11-15T09:33:38;15.70;89.80
292;DHT22;23311;48.776;9.162;2022-11-15T09:36:08;15.80;90.10
292;DHT22;23311;48.776;9.162;2022-11-15T09:38:37;15.50;91.00
292;DHT22;23311;48.776;9.162;2022-11-15T09:44:11;15.20;92.10
292;DHT22;23311;48.776;9.162;2022-11-15T09:46:59;15.40;92.10
292;DHT22;23311;48.776;9.162;2022-11-15T09:49:31;15.60;91.30
292;DHT22;23311;48.776;9.162;2022-11-15T09:52:00;15.60;91.30
292;DHT22;23311;48.776;9.162;2022-11-15T09:54:30;15.60;91.00
292;DHT22;23311;48.776;9.162;2022-11-15T09:57:21;15.60;90.10
292;DHT22;23311;48.776;9.162;2022-11-15T10:00:00;16.00;90.20
292;DHT22;23311;48.776;9.162;2022-11-15T10:02:59;16.40;88.60
292;DHT22;23311;48.776;9.162;2022-11-15T10:05:28;16.60;87.90
292;DHT22;23311;48.776;9.162;2022-11-15T10:08:01;16.50;87.50
292;DHT22;23311;48.776;9.162;2022-11-15T10:10:36;16.30;87.90
292;DHT22;23311;48.776;9.162;2022-11-15T10:13:07;16.20;89.30
292;DHT22;23311;48.776;9.162;2022-11-15T10:15:43;16.30;88.70
292;DHT22;23311;48.776;9.162;2022-11-15T10:18:16;16.20;88.30
292;DHT22;23311;48.776;9.162;2022-11-15T10:20:48;16.20;88.40
292;DHT22;23311;48.776;9.162;2022-11-15T10:23:18;16.10;88.70
292;DHT22;23311;48.776;9.162;2022-11-15T10:25:51;16.30;88.20
292;DHT22;23311;48.776;9.162;2022-11-15T10:28:24;16.20;88.70
292;DHT22;23311;48.776;9.162;2022-11-15T10:30:59;16.20;89.10
292;DHT22;23311;48.776;9.162;2022-11-15T10:33:31;16.10;88.40
292;DHT22;23311;48.776;9.162;2022-11-15T10:36:23;16.10;88.30
292;DHT22;23311;48.776;9.162;2022-11-15T10:38:58;15.90;89.00
292;DHT22;23311;48.776;9.162;2022-11-15T10:41:31;16.00;89.10
292;DHT22;23311;48.776;9.162;2022-11-15T10:44:08;16.00;89.00
292;DHT22;23311;48.776;9.162;2022-11-15T10:46:40;16.10;89.30
292;DHT22;23311;48.776;9.162;2022-11-15T10:49:15;16.10;89.10
292;DHT22;23311;48.776;9.162;2022-11-15T10:51:45;16.10;89.10
292;DHT22;23311;48.776;9.162;2022-11-15T10:54:20;16.30;89.00
292;DHT22;23311;48.776;9.162;2022-11-15T10:56:53;16.40;88.70
292;DHT22;23311;48.776;9.162;2022-11-15T10:59:26;16.30;89.00
292;DHT22;23311;48.776;9.162;2022-11-15T11:01:56;16.40;88.60
292;DHT22;23311;48.776;9.162;2022-11-15T11:04:24;16.40;89.00
292;DHT22;23311;48.776;9.162;2022-11-15T11:06:53;16.20;89.10
292;DHT22;23311;48.776;9.162;2022-11-15T11:09:30;16.30;88.90
292;DHT22;23311;48.776;9.162;2022-11-15T11:11:59;16.20;89.10
292;DHT22;23311;48.776;9.162;2022-11-15T11:14:28;15.90;89.70
292;DHT22;23311;48.776;9.162;2022-11-15T11:17:04;15.90;90.00
292;DHT22;23311;48.776;9.162;2022-11-15T11:19:49;15.80;90.50
292;DHT22;23311;48.776;9.162;2022-11-15T11:22:23;15.80;90.90
292;DHT22;23311;48.776;9.162;2022-11-15T11:25:03;15.80;90.60
292;DHT22;23311;48.776;9.162;2022-11-15T11:27:39;15.90;90.10
292;DHT22;23311;48.776;9.162;2022-11-15T11:30:14;15.90;90.30
292;DHT22;23311;48.776;9.162;2022-11-15T11:32:59;16.10;90.10
292;DHT22;23311;48.776;9.162;2022-11-15T11:35:32;16.30;90.00
292;DHT22;23311;48.776;9.162;2022-11-15T11:38:15;16.40;89.50
292;DHT22;23311;48.776;9.162;2022-11-15T11:40:54;16.20;89.90
292;DHT22;23311;48.776;9.162;2022-11-15T11:43:27;16.40;89.80
292;DHT22;23311;48.776;9.162;2022-11-15T11:46:14;16.60;89.00
292;DHT22;23311;48.776;9.162;2022-11-15T11:48:53;16.50;89.30
292;DHT22;23311;48.776;9.162;2022-11-15T11:51:27;16.70;88.70
292;DHT22;23311;48.776;9.162;2022-11-15T11:54:01;16.80;88.90
292;DHT22;23311;48.776;9.162;2022-11-15T11:56:33;16.80;88.90
292;DHT22;23311;48.776;9.162;2022-11-15T11:59:07;16.80;88.70
292;DHT22;23311;48.776;9.162;2022-11-15T12:01:42;16.90;88.80
292;DHT22;23311;48.776;9.162;2022-11-15T12:04:16;16.80;88.90
292;DHT22;23311;48.776;9.162;2022-11-15T12:06:49;17.00;88.20
292;DHT22;23311;48.776;9.162;2022-11-15T12:09:21;17.00;88.10
292;DHT22;23311;48.776;9.162;2022-11-15T12:11:56;17.00;88.20
292;DHT22;23311;48.776;9.162;2022-11-15T12:14:32;17.20;88.00
292;DHT22;23311;48.776;9.162;2022-11-15T12:17:01;17.30;87.20
292;DHT22;23311;48.776;9.162;2022-11-15T12:19:31;17.20;87.40
292;DHT22;23311;48.776;9.162;2022-11-15T12:22:02;16.90;88.40
292;DHT22;23311;48.776;9.162;2022-11-15T12:24:37;16.80;88.70
292;DHT22;23311;48.776;9.162;2022-11-15T12:27:14;16.60;89.50
292;DHT22;23311;48.776;9.162;2022-11-15T12:29:54;16.60;89.70
292;DHT22;23311;48.776;9.162;2022-11-15T12:32:28;16.70;89.50
292;DHT22;23311;48.776;9.162;2022-11-15T12:34:59;16.60;89.80
292;DHT22;23311;48.776;9.162;2022-11-15T12:37:47;16.50;89.70
292;DHT22;23311;48.776;9.162;2022-11-15T12:40:32;16.40;90.10
292;DHT22;23311;48.776;9.162;2022-11-15T12:46:03;16.30;91.10
292;DHT22;23311;48.776;9.162;2022-11-15T12:48:49;16.30;90.90
292;DHT22;23311;48.776;9.162;2022-11-15T12:51:22;16.10;91.70
292;DHT22;23311;48.776;9.162;2022-11-15T12:53:50;16.20;92.00
292;DHT22;23311;48.776;9.162;2022-11-15T12:56:22;16.20;91.70
292;DHT22;23311;48.776;9.162;2022-11-15T12:58:55;16.20;91.70
292;DHT22;23311;48.776;9.162;2022-11-15T13:01:58;16.10;91.70
292;DHT22;23311;48.776;9.162;2022-11-15T13:04:29;16.10;92.00
292;DHT22;23311;48.776;9.162;2022-11-15T13:07:01;16.10;92.40
292;DHT22;23311;48.776;9.162;2022-11-15T13:09:52;15.90;92.80
292;DHT22;23311;48.776;9.162;2022-11-15T13:12:49;16.00;93.40
292;DHT22;23311;48.776;9.162;2022-11-15T13:15:38;16.00;93.50
292;DHT22;23311;48.776;9.162;2022-11-15T13:18:33;15.90;94.20
292;DHT22;23311;48.776;9.162;2022-11-15T13:21:04;15.80;94.50
292;DHT22;23311;48.776;9.162;2022-11-15T13:23:57;15.70;94.60
292;DHT22;23311;48.776;9.162;2022-11-15T13:26:25;15.60;94.30
292;DHT22;23311;48.776;9.162;2022-11-15T13:28:53;15.50;94.70
292;DHT22;23311;48.776;9.162;2022-11-15T13:31:28;15.40;95.00
292;DHT22;23311;48.776;9.162;2022-11-15T13:34:00;15.40;95.00
292;DHT22;23311;48.776;9.162;2022-11-15T13:36:31;15.30;95.30
292;DHT22;23311;48.776;9.162;2022-11-15T13:39:04;15.30;95.50
292;DHT22;23311;48.776;9.162;2022-11-15T13:41:34;15.20;95.50
292;DHT22;23311;48.776;9.162;2022-11-15T13:44:03;15.20;95.50
292;DHT22;23311;48.776;9.162;2022-11-15T13:46:32;15.20;95.50
292;DHT22;23311;48.776;9.162;2022-11-15T13:49:03;15.10;95.50
292;DHT22;23311;48.776;9.162;2022-11-15T13:51:36;15.10;95.50
292;DHT22;23311;48.776;9.162;2022-11-15T13:54:16;15.10;95.50
292;DHT22;23311;48.776;9.162;2022-11-15T13:56:49;15.20;95.50
292;DHT22;23311;48.776;9.162;2022-11-15T13:59:24;15.20;95.50
292;DHT22;23311;48.776;9.162;2022-11-15T14:01:53;15.00;95.50
292;DHT22;23311;48.776;9.162;2022-11-15T14:04:23;14.80;95.50
292;DHT22;23311;48.776;9.162;2022-11-15T14:06:56;14.50;95.50
292;DHT22;23311;48.776;9.162;2022-11-15T14:09:31;14.30;95.50
292;DHT22;23311;48.776;9.162;2022-11-15T14:12:01;14.10;95.50
292;DHT22;23311;48.776;9.162;2022-11-15T14:14:30;14.00;95.50
292;DHT22;23311;48.776;9.162;2022-11-15T14:16:59;13.80;95.50
292;DHT22;23311;48.776;9.162;2022-11-15T14:19:39;13.70;95.50
292;DHT22;23311;48.776;9.162;2022-11-15T14:22:09;13.60;95.50
292;DHT22;23311;48.776;9.162;2022-11-15T14:24:40;13.50;95.50
292;DHT22;23311;48.776;9.162;2022-11-15T14:27:20;13.40;95.50
292;DHT22;23311;48.776;9.162;2022-11-15T14:29:48;13.30;95.50
292;DHT22;23311;48.776;9.162;2022-11-15T14:32:18;13.40;95.50
292;DHT22;23311;48.776;9.162;2022-11-15T14:34:48;13.40;95.50
292;DHT22;23311;48.776;9.162;2022-11-15T14:37:21;13.40;95.50
292;DHT22;23311;48.776;9.162;2022-11-15T14:39:51;13.40;95.50
292;DHT22;23311;48.776;9.162;2022-11-15T14:42:21;13.50;95.50
292;DHT22;23311;48.776;9.162;2022-11-15T14:44:49;13.50;95.50
292;DHT22;23311;48.776;9.162;2022-11-15T14:47:18;13.50;95.50
292;DHT22;23311;48.776;9.162;2022-11-15T14:49:46;13.60;95.50
292;DHT22;23311;48.776;9.162;2022-11-15T14:52:24;13.60;95.50
292;DHT22;23311;48.776;9.162;2022-11-15T14:55:01;13.50;95.50
292;DHT22;23311;48.776;9.162;2022-11-15T14:57:29;13.60;95.50
292;DHT22;23311;48.776;9.162;2022-11-15T14:59:58;13.50;95.50
292;DHT22;23311;48.776;9.162;2022-11-15T15:02:26;13.60;95.50
292;DHT22;23311;48.776;9.162;2022-11-15T15:04:55;13.60;95.50
292;DHT22;23311;48.776;9.162;2022-11-15T15:07:27;13.60;95.50
292;DHT22;23311;48.776;9.162;2022-11-15T15:09:56;13.60;95.50
292;DHT22;23311;48.776;9.162;2022-11-15T15:12:45;13.50;95.50
292;DHT22;23311;48.776;9.162;2022-11-15T15:15:15;13.50;95.50
292;DHT22;23311;48.776;9.162;2022-11-15T15:17:43;13.50;95.50
292;DHT22;23311;48.776;9.162;2022-11-15T15:20:11;13.50;95.50
292;DHT22;23311;48.776;9.162;2022-11-15T15:22:39;13.40;95.50
292;DHT22;23311;48.776;9.162;2022-11-15T15:25:20;13.40;95.50
292;DHT22;23311;48.776;9.162;2022-11-15T15:27:50;13.40;95.50
292;DHT22;23311;48.776;9.162;2022-11-15T15:30:21;13.30;95.50
292;DHT22;23311;48.776;9.162;2022-11-15T15:32:50;13.10;95.50
292;DHT22;23311;48.776;9.162;2022-11-15T15:35:18;12.90;95.50
292;DHT22;23311;48.776;9.162;2022-11-15T15:37:48;12.80;95.50
292;DHT22;23311;48.776;9.162;2022-11-15T15:40:18;12.80;95.50
292;DHT22;23311;48.776;9.162;2022-11-15T15:42:47;12.70;95.50
292;DHT22;23311;48.776;9.162;2022-11-15T15:45:18;12.70;95.50
292;DHT22;23311;48.776;9.162;2022-11-15T15:47:47;12.70;95.50
292;DHT22;23311;48.776;9.162;2022-11-15T15:50:22;12.70;95.50
292;DHT22;23311;48.776;9.162;2022-11-15T15:52:52;12.70;95.50
292;DHT22;23311;48.776;9.162;2022-11-15T15:55:20;12.60;95.50
292;DHT22;23311;48.776;9.162;2022-11-15T15:57:49;12.70;95.50
292;DHT22;23311;48.776;9.162;2022-11-15T16:00:20;12.80;95.50
292;DHT22;23311;48.776;9.162;2022-11-15T16:02:49;12.80;95.50
292;DHT22;23311;48.776;9.162;2022-11-15T16:05:17;12.90;95.50
292;DHT22;23311;48.776;9.162;2022-11-15T16:07:46;12.80;95.50
292;DHT22;23311;48.776;9.162;2022-11-15T16:10:21;12.80;95.50
292;DHT22;23311;48.776;9.162;2022-11-15T16:12:52;12.80;95.50
292;DHT22;23311;48.776;9.162;2022-11-15T16:15:22;12.80;95.50
292;DHT22;23311;48.776;9.162;2022-11-15T16:17:52;12.80;95.50
292;DHT22;23311;48.776;9.162;2022-11-15T16:20:33;12.80;95.50
292;DHT22;23311;48.776;9.162;2022-11-15T16:23:02;12.80;95.50
292;DHT22;23311;48.776;9.162;2022-11-15T16:25:39;12.80;95.50
292;DHT22;23311;48.776;9.162;2022-11-15T16:28:16;12.80;95.50
292;DHT22;23311;48.776;9.162;2022-11-15T16:30:46;12.90;95.50
292;DHT22;23311;48.776;9.162;2022-11-15T16:33:22;12.90;95.50
292;DHT22;23311;48.776;9.162;2022-11-15T16:35:50;13.00;95.50
292;DHT22;23311;48.776;9.162;2022-11-15T16:38:19;12.90;95.50
292;DHT22;23311;48.776;9.162;2022-11-15T16:40:47;12.90;95.50
292;DHT22;23311;48.776;9.162;2022-11-15T16:43:15;12.80;95.50